KRIC/RIC METAR and TAF weather

Enter ICAO airport designator
Station Type Date Time Source
KRIC METAR 2021/04/14 20:54 UTC NOAA

KRIC 142054Z 15007KT 10SM FEW040 BKN085 BKN150 22/12 A2994 RMK AO2 SLP141 60000 T02170122 56030


Station Type Date Time Source
KRIC Decoded METAR 2021/04/14 20:54 UTC NOAA

RICHMOND INTERNATIONAL AIRPORT, VA, United States (KRIC) 37-31N 077-19W 50M
Apr 14, 2021 - 04:54 PM EDT / 2021.04.14 2054 UTC
Wind: from the SSE (150 degrees) at 8 MPH (7 KT):0
Visibility: 10 mile(s):0
Sky conditions: mostly cloudy
Temperature: 71.1 F (21.7 C)
Dew Point: 54.0 F (12.2 C)
Relative Humidity: 54%
Pressure (altimeter): 29.94 in. Hg (1013 hPa)
Pressure tendency: 0.09 inches (3.0 hPa) lower than three hours ago
ob: KRIC 142054Z 15007KT 10SM FEW040 BKN085 BKN150 22/12 A2994 RMK AO2 SLP141 60000 T02170122 56030
cycle: 21

Station Type Date Time Source
KRIC TAF 2021/04/14 18:22 UTC NOAA

TAF KRIC 141720Z 1418/1518 17008KT P6SM VCSH BKN090
FM142300 02008KT 4SM SHRA OVC025
FM150400 02006KT P6SM VCSH OVC010
FM150800 01004KT P6SM OVC008
FM151500 30007KT P6SM BKN020

Example: see airport list